sensor_id;sensor_type;location;lat;lon;timestamp;P1;P2;P0
36519;PMS5003;40269;46.742;9.778;2023-06-22T00:00:23;17;17;
36519;PMS5003;40269;46.742;9.778;2023-06-22T00:02:50;36;30;
36519;PMS5003;40269;46.742;9.778;2023-06-22T00:05:17;22;19;
36519;PMS5003;40269;46.742;9.778;2023-06-22T00:07:44;23;19;
36519;PMS5003;40269;46.742;9.778;2023-06-22T00:10:11;18;16;
36519;PMS5003;40269;46.742;9.778;2023-06-22T00:12:38;19;16;
36519;PMS5003;40269;46.742;9.778;2023-06-22T00:15:05;18;15;
36519;PMS5003;40269;46.742;9.778;2023-06-22T00:17:32;16;16;
36519;PMS5003;40269;46.742;9.778;2023-06-22T00:19:59;25;22;
36519;PMS5003;40269;46.742;9.778;2023-06-22T00:22:26;23;19;
36519;PMS5003;40269;46.742;9.778;2023-06-22T00:24:52;25;23;
36519;PMS5003;40269;46.742;9.778;2023-06-22T00:27:19;18;17;
36519;PMS5003;40269;46.742;9.778;2023-06-22T00:29:46;24;20;
36519;PMS5003;40269;46.742;9.778;2023-06-22T00:32:13;19;16;
36519;PMS5003;40269;46.742;9.778;2023-06-22T00:34:41;20;15;
36519;PMS5003;40269;46.742;9.778;2023-06-22T00:37:08;39;35;
36519;PMS5003;40269;46.742;9.778;2023-06-22T00:39:35;47;39;
36519;PMS5003;40269;46.742;9.778;2023-06-22T00:42:02;29;26;
36519;PMS5003;40269;46.742;9.778;2023-06-22T00:44:31;18;16;
36519;PMS5003;40269;46.742;9.778;2023-06-22T00:46:58;16;15;
36519;PMS5003;40269;46.742;9.778;2023-06-22T00:49:25;17;15;
36519;PMS5003;40269;46.742;9.778;2023-06-22T00:51:52;19;18;
36519;PMS5003;40269;46.742;9.778;2023-06-22T00:54:19;17;14;
36519;PMS5003;40269;46.742;9.778;2023-06-22T00:56:47;15;15;
36519;PMS5003;40269;46.742;9.778;2023-06-22T00:59:14;17;17;
36519;PMS5003;40269;46.742;9.778;2023-06-22T01:01:41;16;15;
36519;PMS5003;40269;46.742;9.778;2023-06-22T01:04:08;16;15;
36519;PMS5003;40269;46.742;9.778;2023-06-22T01:06:35;19;17;
36519;PMS5003;40269;46.742;9.778;2023-06-22T01:09:12;24;21;
36519;PMS5003;40269;46.742;9.778;2023-06-22T01:11:47;20;18;
36519;PMS5003;40269;46.742;9.778;2023-06-22T01:14:23;12;12;
36519;PMS5003;40269;46.742;9.778;2023-06-22T01:16:54;14;13;
36519;PMS5003;40269;46.742;9.778;2023-06-22T01:19:28;20;15;
36519;PMS5003;40269;46.742;9.778;2023-06-22T01:22:01;22;19;
36519;PMS5003;40269;46.742;9.778;2023-06-22T01:24:30;20;19;
36519;PMS5003;40269;46.742;9.778;2023-06-22T01:27:09;25;21;
36519;PMS5003;40269;46.742;9.778;2023-06-22T01:29:44;20;17;
36519;PMS5003;40269;46.742;9.778;2023-06-22T01:32:12;20;20;
36519;PMS5003;40269;46.742;9.778;2023-06-22T01:34:41;20;18;
36519;PMS5003;40269;46.742;9.778;2023-06-22T01:37:09;18;15;
36519;PMS5003;40269;46.742;9.778;2023-06-22T01:39:36;19;17;
36519;PMS5003;40269;46.742;9.778;2023-06-22T01:42:04;22;16;
36519;PMS5003;40269;46.742;9.778;2023-06-22T01:44:32;16;16;
36519;PMS5003;40269;46.742;9.778;2023-06-22T01:47:00;17;15;
36519;PMS5003;40269;46.742;9.778;2023-06-22T01:49:27;16;13;
36519;PMS5003;40269;46.742;9.778;2023-06-22T01:51:55;20;17;
36519;PMS5003;40269;46.742;9.778;2023-06-22T01:54:22;14;13;
36519;PMS5003;40269;46.742;9.778;2023-06-22T01:56:49;15;15;
36519;PMS5003;40269;46.742;9.778;2023-06-22T01:59:17;16;16;
36519;PMS5003;40269;46.742;9.778;2023-06-22T02:01:53;23;15;
36519;PMS5003;40269;46.742;9.778;2023-06-22T02:04:24;17;16;
36519;PMS5003;40269;46.742;9.778;2023-06-22T02:06:55;15;15;
36519;PMS5003;40269;46.742;9.778;2023-06-22T02:09:26;18;16;
36519;PMS5003;40269;46.742;9.778;2023-06-22T02:11:57;25;21;
36519;PMS5003;40269;46.742;9.778;2023-06-22T02:14:26;15;14;
36519;PMS5003;40269;46.742;9.778;2023-06-22T02:16:53;15;15;
36519;PMS5003;40269;46.742;9.778;2023-06-22T02:19:22;16;13;
36519;PMS5003;40269;46.742;9.778;2023-06-22T02:21:49;22;20;
36519;PMS5003;40269;46.742;9.778;2023-06-22T02:24:16;17;15;
36519;PMS5003;40269;46.742;9.778;2023-06-22T02:26:43;16;15;
36519;PMS5003;40269;46.742;9.778;2023-06-22T02:29:10;16;16;
36519;PMS5003;40269;46.742;9.778;2023-06-22T02:31:37;16;13;
36519;PMS5003;40269;46.742;9.778;2023-06-22T02:34:04;13;13;
36519;PMS5003;40269;46.742;9.778;2023-06-22T02:36:30;25;23;
36519;PMS5003;40269;46.742;9.778;2023-06-22T02:38:57;21;20;
36519;PMS5003;40269;46.742;9.778;2023-06-22T02:41:24;20;17;
36519;PMS5003;40269;46.742;9.778;2023-06-22T02:43:51;17;17;
36519;PMS5003;40269;46.742;9.778;2023-06-22T02:46:18;18;15;
36519;PMS5003;40269;46.742;9.778;2023-06-22T02:48:45;16;13;
36519;PMS5003;40269;46.742;9.778;2023-06-22T02:51:12;24;22;
36519;PMS5003;40269;46.742;9.778;2023-06-22T02:53:39;18;16;
36519;PMS5003;40269;46.742;9.778;2023-06-22T02:56:06;17;16;
36519;PMS5003;40269;46.742;9.778;2023-06-22T02:58:33;17;15;
36519;PMS5003;40269;46.742;9.778;2023-06-22T03:01:00;15;14;
36519;PMS5003;40269;46.742;9.778;2023-06-22T03:03:26;16;15;
36519;PMS5003;40269;46.742;9.778;2023-06-22T03:05:53;20;20;
36519;PMS5003;40269;46.742;9.778;2023-06-22T03:08:20;22;19;
36519;PMS5003;40269;46.742;9.778;2023-06-22T03:10:47;21;15;
36519;PMS5003;40269;46.742;9.778;2023-06-22T03:13:14;17;15;
36519;PMS5003;40269;46.742;9.778;2023-06-22T03:15:41;20;16;
36519;PMS5003;40269;46.742;9.778;2023-06-22T03:18:09;14;14;
36519;PMS5003;40269;46.742;9.778;2023-06-22T03:20:36;15;15;
36519;PMS5003;40269;46.742;9.778;2023-06-22T03:23:03;16;14;
36519;PMS5003;40269;46.742;9.778;2023-06-22T03:25:30;31;27;
36519;PMS5003;40269;46.742;9.778;2023-06-22T03:27:57;21;19;
36519;PMS5003;40269;46.742;9.778;2023-06-22T03:30:24;18;14;
36519;PMS5003;40269;46.742;9.778;2023-06-22T03:32:51;20;18;
36519;PMS5003;40269;46.742;9.778;2023-06-22T03:35:18;18;16;
36519;PMS5003;40269;46.742;9.778;2023-06-22T03:37:46;16;15;
36519;PMS5003;40269;46.742;9.778;2023-06-22T03:40:12;15;15;
36519;PMS5003;40269;46.742;9.778;2023-06-22T03:42:40;19;14;
36519;PMS5003;40269;46.742;9.778;2023-06-22T03:45:08;16;15;
36519;PMS5003;40269;46.742;9.778;2023-06-22T03:47:36;18;15;
36519;PMS5003;40269;46.742;9.778;2023-06-22T03:50:03;12;9;
36519;PMS5003;40269;46.742;9.778;2023-06-22T03:52:31;17;14;
36519;PMS5003;40269;46.742;9.778;2023-06-22T03:54:58;14;12;
36519;PMS5003;40269;46.742;9.778;2023-06-22T03:57:25;14;14;
36519;PMS5003;40269;46.742;9.778;2023-06-22T03:59:53;12;11;
36519;PMS5003;40269;46.742;9.778;2023-06-22T04:02:23;16;11;
36519;PMS5003;40269;46.742;9.778;2023-06-22T04:04:49;18;16;
36519;PMS5003;40269;46.742;9.778;2023-06-22T04:07:16;15;13;
36519;PMS5003;40269;46.742;9.778;2023-06-22T04:09:43;16;10;
36519;PMS5003;40269;46.742;9.778;2023-06-22T04:12:10;19;15;
36519;PMS5003;40269;46.742;9.778;2023-06-22T04:14:37;12;11;
36519;PMS5003;40269;46.742;9.778;2023-06-22T04:17:04;14;14;
36519;PMS5003;40269;46.742;9.778;2023-06-22T04:19:31;13;12;
36519;PMS5003;40269;46.742;9.778;2023-06-22T04:21:58;12;12;
36519;PMS5003;40269;46.742;9.778;2023-06-22T04:24:25;13;13;
36519;PMS5003;40269;46.742;9.778;2023-06-22T04:26:52;11;11;
36519;PMS5003;40269;46.742;9.778;2023-06-22T04:29:19;18;14;
36519;PMS5003;40269;46.742;9.778;2023-06-22T04:31:47;19;16;
36519;PMS5003;40269;46.742;9.778;2023-06-22T04:34:14;15;12;
36519;PMS5003;40269;46.742;9.778;2023-06-22T04:36:42;14;12;
36519;PMS5003;40269;46.742;9.778;2023-06-22T04:39:09;13;11;
36519;PMS5003;40269;46.742;9.778;2023-06-22T04:41:38;16;12;
36519;PMS5003;40269;46.742;9.778;2023-06-22T04:44:06;14;13;
36519;PMS5003;40269;46.742;9.778;2023-06-22T04:46:32;17;16;
36519;PMS5003;40269;46.742;9.778;2023-06-22T04:49:00;13;12;
36519;PMS5003;40269;46.742;9.778;2023-06-22T04:51:27;11;11;
36519;PMS5003;40269;46.742;9.778;2023-06-22T04:53:53;18;14;
36519;PMS5003;40269;46.742;9.778;2023-06-22T04:56:20;13;11;
36519;PMS5003;40269;46.742;9.778;2023-06-22T04:58:47;15;12;
36519;PMS5003;40269;46.742;9.778;2023-06-22T05:01:14;16;15;
36519;PMS5003;40269;46.742;9.778;2023-06-22T05:03:41;12;10;
36519;PMS5003;40269;46.742;9.778;2023-06-22T05:06:08;12;10;
36519;PMS5003;40269;46.742;9.778;2023-06-22T05:08:35;14;11;
36519;PMS5003;40269;46.742;9.778;2023-06-22T05:11:02;14;14;
36519;PMS5003;40269;46.742;9.778;2023-06-22T05:13:28;14;11;
36519;PMS5003;40269;46.742;9.778;2023-06-22T05:15:55;12;12;
36519;PMS5003;40269;46.742;9.778;2023-06-22T05:18:22;14;12;
36519;PMS5003;40269;46.742;9.778;2023-06-22T05:20:48;12;9;
36519;PMS5003;40269;46.742;9.778;2023-06-22T05:23:15;13;10;
36519;PMS5003;40269;46.742;9.778;2023-06-22T05:25:42;12;12;
36519;PMS5003;40269;46.742;9.778;2023-06-22T05:28:09;12;12;
36519;PMS5003;40269;46.742;9.778;2023-06-22T05:30:36;12;11;
36519;PMS5003;40269;46.742;9.778;2023-06-22T05:33:03;12;11;
36519;PMS5003;40269;46.742;9.778;2023-06-22T05:35:30;16;16;
36519;PMS5003;40269;46.742;9.778;2023-06-22T05:37:57;16;13;
36519;PMS5003;40269;46.742;9.778;2023-06-22T05:40:24;10;10;
36519;PMS5003;40269;46.742;9.778;2023-06-22T05:42:51;13;12;
36519;PMS5003;40269;46.742;9.778;2023-06-22T05:45:18;15;14;
36519;PMS5003;40269;46.742;9.778;2023-06-22T05:47:44;14;11;
36519;PMS5003;40269;46.742;9.778;2023-06-22T05:50:11;12;11;
36519;PMS5003;40269;46.742;9.778;2023-06-22T05:52:39;14;14;
36519;PMS5003;40269;46.742;9.778;2023-06-22T05:55:06;13;12;
36519;PMS5003;40269;46.742;9.778;2023-06-22T05:57:34;13;11;
36519;PMS5003;40269;46.742;9.778;2023-06-22T06:00:00;15;14;
36519;PMS5003;40269;46.742;9.778;2023-06-22T06:02:28;10;10;
36519;PMS5003;40269;46.742;9.778;2023-06-22T06:04:55;12;10;
36519;PMS5003;40269;46.742;9.778;2023-06-22T06:07:22;12;10;
36519;PMS5003;40269;46.742;9.778;2023-06-22T06:09:48;9;8;
36519;PMS5003;40269;46.742;9.778;2023-06-22T06:12:15;19;16;
36519;PMS5003;40269;46.742;9.778;2023-06-22T06:14:42;21;20;
36519;PMS5003;40269;46.742;9.778;2023-06-22T06:17:09;12;11;
36519;PMS5003;40269;46.742;9.778;2023-06-22T06:19:35;14;12;
36519;PMS5003;40269;46.742;9.778;2023-06-22T06:22:02;10;10;
36519;PMS5003;40269;46.742;9.778;2023-06-22T06:24:29;9;8;
36519;PMS5003;40269;46.742;9.778;2023-06-22T06:26:56;16;15;
36519;PMS5003;40269;46.742;9.778;2023-06-22T06:29:23;11;8;
36519;PMS5003;40269;46.742;9.778;2023-06-22T06:31:50;10;10;
36519;PMS5003;40269;46.742;9.778;2023-06-22T06:34:17;15;13;
36519;PMS5003;40269;46.742;9.778;2023-06-22T06:36:45;12;12;
36519;PMS5003;40269;46.742;9.778;2023-06-22T06:39:12;11;9;
36519;PMS5003;40269;46.742;9.778;2023-06-22T06:41:39;10;9;
36519;PMS5003;40269;46.742;9.778;2023-06-22T06:44:06;14;10;
36519;PMS5003;40269;46.742;9.778;2023-06-22T06:46:32;12;10;
36519;PMS5003;40269;46.742;9.778;2023-06-22T06:49:00;16;10;
36519;PMS5003;40269;46.742;9.778;2023-06-22T06:51:27;6;5;
36519;PMS5003;40269;46.742;9.778;2023-06-22T06:53:53;11;11;
36519;PMS5003;40269;46.742;9.778;2023-06-22T06:56:20;10;10;
36519;PMS5003;40269;46.742;9.778;2023-06-22T06:58:49;9;8;
36519;PMS5003;40269;46.742;9.778;2023-06-22T07:01:16;10;10;
36519;PMS5003;40269;46.742;9.778;2023-06-22T07:03:43;11;9;
36519;PMS5003;40269;46.742;9.778;2023-06-22T07:06:10;15;11;
36519;PMS5003;40269;46.742;9.778;2023-06-22T07:08:36;8;6;
36519;PMS5003;40269;46.742;9.778;2023-06-22T07:11:03;8;8;
36519;PMS5003;40269;46.742;9.778;2023-06-22T07:13:30;9;8;
36519;PMS5003;40269;46.742;9.778;2023-06-22T07:15:57;10;9;
36519;PMS5003;40269;46.742;9.778;2023-06-22T07:18:24;10;8;
36519;PMS5003;40269;46.742;9.778;2023-06-22T07:20:51;8;8;
36519;PMS5003;40269;46.742;9.778;2023-06-22T07:23:17;8;8;
36519;PMS5003;40269;46.742;9.778;2023-06-22T07:25:44;12;11;
36519;PMS5003;40269;46.742;9.778;2023-06-22T07:28:11;12;9;
36519;PMS5003;40269;46.742;9.778;2023-06-22T07:30:38;7;6;
36519;PMS5003;40269;46.742;9.778;2023-06-22T07:33:06;8;7;
36519;PMS5003;40269;46.742;9.778;2023-06-22T07:35:38;8;8;
36519;PMS5003;40269;46.742;9.778;2023-06-22T07:38:05;11;8;
36519;PMS5003;40269;46.742;9.778;2023-06-22T07:40:31;13;9;
36519;PMS5003;40269;46.742;9.778;2023-06-22T07:42:59;8;8;
36519;PMS5003;40269;46.742;9.778;2023-06-22T07:45:26;7;5;
36519;PMS5003;40269;46.742;9.778;2023-06-22T07:47:53;10;7;
36519;PMS5003;40269;46.742;9.778;2023-06-22T07:50:20;9;8;
36519;PMS5003;40269;46.742;9.778;2023-06-22T07:52:47;8;7;
36519;PMS5003;40269;46.742;9.778;2023-06-22T07:55:14;7;7;
36519;PMS5003;40269;46.742;9.778;2023-06-22T07:57:42;6;6;
36519;PMS5003;40269;46.742;9.778;2023-06-22T08:00:09;13;8;
36519;PMS5003;40269;46.742;9.778;2023-06-22T08:02:37;7;6;
36519;PMS5003;40269;46.742;9.778;2023-06-22T08:05:05;6;5;
36519;PMS5003;40269;46.742;9.778;2023-06-22T08:07:32;8;4;
36519;PMS5003;40269;46.742;9.778;2023-06-22T08:09:59;5;5;
36519;PMS5003;40269;46.742;9.778;2023-06-22T08:12:26;13;8;
36519;PMS5003;40269;46.742;9.778;2023-06-22T08:14:52;4;4;
36519;PMS5003;40269;46.742;9.778;2023-06-22T08:17:19;5;4;
36519;PMS5003;40269;46.742;9.778;2023-06-22T08:19:46;10;6;
36519;PMS5003;40269;46.742;9.778;2023-06-22T08:22:13;6;5;
36519;PMS5003;40269;46.742;9.778;2023-06-22T08:24:39;7;5;
36519;PMS5003;40269;46.742;9.778;2023-06-22T08:27:06;8;4;
36519;PMS5003;40269;46.742;9.778;2023-06-22T08:29:34;10;6;
36519;PMS5003;40269;46.742;9.778;2023-06-22T08:32:00;4;4;
36519;PMS5003;40269;46.742;9.778;2023-06-22T08:34:27;5;5;
36519;PMS5003;40269;46.742;9.778;2023-06-22T08:36:55;6;6;
36519;PMS5003;40269;46.742;9.778;2023-06-22T08:39:22;7;5;
36519;PMS5003;40269;46.742;9.778;2023-06-22T08:41:49;6;5;
36519;PMS5003;40269;46.742;9.778;2023-06-22T08:44:18;8;6;
36519;PMS5003;40269;46.742;9.778;2023-06-22T08:46:45;5;4;
36519;PMS5003;40269;46.742;9.778;2023-06-22T08:49:12;4;4;
36519;PMS5003;40269;46.742;9.778;2023-06-22T08:51:40;6;4;
36519;PMS5003;40269;46.742;9.778;2023-06-22T08:54:08;9;6;
36519;PMS5003;40269;46.742;9.778;2023-06-22T08:56:35;5;4;
36519;PMS5003;40269;46.742;9.778;2023-06-22T08:59:01;7;5;
36519;PMS5003;40269;46.742;9.778;2023-06-22T09:01:29;9;4;
36519;PMS5003;40269;46.742;9.778;2023-06-22T09:03:56;7;6;
36519;PMS5003;40269;46.742;9.778;2023-06-22T09:06:23;7;6;
36519;PMS5003;40269;46.742;9.778;2023-06-22T09:08:50;6;5;
36519;PMS5003;40269;46.742;9.778;2023-06-22T09:11:18;7;5;
36519;PMS5003;40269;46.742;9.778;2023-06-22T09:13:45;9;8;
36519;PMS5003;40269;46.742;9.778;2023-06-22T09:16:11;9;7;
36519;PMS5003;40269;46.742;9.778;2023-06-22T09:18:38;11;7;
36519;PMS5003;40269;46.742;9.778;2023-06-22T09:21:05;4;4;
36519;PMS5003;40269;46.742;9.778;2023-06-22T09:23:31;8;5;
36519;PMS5003;40269;46.742;9.778;2023-06-22T09:25:58;4;4;
36519;PMS5003;40269;46.742;9.778;2023-06-22T09:28:25;10;5;
36519;PMS5003;40269;46.742;9.778;2023-06-22T09:30:51;6;4;
36519;PMS5003;40269;46.742;9.778;2023-06-22T09:33:19;8;4;
36519;PMS5003;40269;46.742;9.778;2023-06-22T09:35:46;5;4;
36519;PMS5003;40269;46.742;9.778;2023-06-22T09:38:12;5;5;
36519;PMS5003;40269;46.742;9.778;2023-06-22T09:40:39;7;6;
36519;PMS5003;40269;46.742;9.778;2023-06-22T09:43:06;8;5;
36519;PMS5003;40269;46.742;9.778;2023-06-22T09:45:32;5;5;
36519;PMS5003;40269;46.742;9.778;2023-06-22T09:47:59;5;5;
36519;PMS5003;40269;46.742;9.778;2023-06-22T09:50:27;7;5;
36519;PMS5003;40269;46.742;9.778;2023-06-22T09:52:53;5;3;
36519;PMS5003;40269;46.742;9.778;2023-06-22T09:55:20;12;7;
36519;PMS5003;40269;46.742;9.778;2023-06-22T09:57:47;7;5;
36519;PMS5003;40269;46.742;9.778;2023-06-22T10:00:15;8;5;
36519;PMS5003;40269;46.742;9.778;2023-06-22T10:02:43;6;5;
36519;PMS5003;40269;46.742;9.778;2023-06-22T10:05:10;9;6;
36519;PMS5003;40269;46.742;9.778;2023-06-22T10:07:37;10;5;
36519;PMS5003;40269;46.742;9.778;2023-06-22T10:10:04;6;5;
36519;PMS5003;40269;46.742;9.778;2023-06-22T10:12:31;8;6;
36519;PMS5003;40269;46.742;9.778;2023-06-22T10:14:58;8;7;
36519;PMS5003;40269;46.742;9.778;2023-06-22T10:17:24;8;6;
36519;PMS5003;40269;46.742;9.778;2023-06-22T10:19:52;7;7;
36519;PMS5003;40269;46.742;9.778;2023-06-22T10:22:19;8;7;
36519;PMS5003;40269;46.742;9.778;2023-06-22T10:24:46;9;7;
36519;PMS5003;40269;46.742;9.778;2023-06-22T10:27:13;8;5;
36519;PMS5003;40269;46.742;9.778;2023-06-22T10:29:41;8;5;
36519;PMS5003;40269;46.742;9.778;2023-06-22T10:32:08;6;5;
36519;PMS5003;40269;46.742;9.778;2023-06-22T10:34:35;5;5;
36519;PMS5003;40269;46.742;9.778;2023-06-22T10:37:02;12;7;
36519;PMS5003;40269;46.742;9.778;2023-06-22T10:39:29;6;5;
36519;PMS5003;40269;46.742;9.778;2023-06-22T10:41:56;12;9;
36519;PMS5003;40269;46.742;9.778;2023-06-22T10:44:23;8;7;
36519;PMS5003;40269;46.742;9.778;2023-06-22T10:46:50;8;4;
36519;PMS5003;40269;46.742;9.778;2023-06-22T10:49:16;12;6;
36519;PMS5003;40269;46.742;9.778;2023-06-22T10:51:43;6;4;
36519;PMS5003;40269;46.742;9.778;2023-06-22T10:54:09;8;5;
36519;PMS5003;40269;46.742;9.778;2023-06-22T10:56:36;6;3;
36519;PMS5003;40269;46.742;9.778;2023-06-22T10:59:03;5;5;
36519;PMS5003;40269;46.742;9.778;2023-06-22T11:01:30;8;6;
36519;PMS5003;40269;46.742;9.778;2023-06-22T11:03:57;7;5;
36519;PMS5003;40269;46.742;9.778;2023-06-22T11:06:24;7;5;
36519;PMS5003;40269;46.742;9.778;2023-06-22T11:08:50;8;6;
36519;PMS5003;40269;46.742;9.778;2023-06-22T11:11:17;5;4;
36519;PMS5003;40269;46.742;9.778;2023-06-22T11:13:44;6;5;
36519;PMS5003;40269;46.742;9.778;2023-06-22T11:16:10;6;6;
36519;PMS5003;40269;46.742;9.778;2023-06-22T11:18:37;6;4;
36519;PMS5003;40269;46.742;9.778;2023-06-22T11:21:04;3;3;
36519;PMS5003;40269;46.742;9.778;2023-06-22T11:23:32;5;2;
36519;PMS5003;40269;46.742;9.778;2023-06-22T11:25:59;7;4;
36519;PMS5003;40269;46.742;9.778;2023-06-22T11:28:25;7;4;
36519;PMS5003;40269;46.742;9.778;2023-06-22T11:30:52;4;4;
36519;PMS5003;40269;46.742;9.778;2023-06-22T11:33:19;4;4;
36519;PMS5003;40269;46.742;9.778;2023-06-22T11:35:45;5;3;
36519;PMS5003;40269;46.742;9.778;2023-06-22T11:38:12;4;2;
36519;PMS5003;40269;46.742;9.778;2023-06-22T11:40:38;7;5;
36519;PMS5003;40269;46.742;9.778;2023-06-22T11:43:05;6;4;
36519;PMS5003;40269;46.742;9.778;2023-06-22T11:45:32;5;3;
36519;PMS5003;40269;46.742;9.778;2023-06-22T11:47:59;8;5;
36519;PMS5003;40269;46.742;9.778;2023-06-22T11:50:25;5;4;
36519;PMS5003;40269;46.742;9.778;2023-06-22T11:52:52;7;4;
36519;PMS5003;40269;46.742;9.778;2023-06-22T11:55:19;6;5;
36519;PMS5003;40269;46.742;9.778;2023-06-22T11:57:54;2;2;
36519;PMS5003;40269;46.742;9.778;2023-06-22T12:00:22;4;2;
36519;PMS5003;40269;46.742;9.778;2023-06-22T12:02:49;3;3;
36519;PMS5003;40269;46.742;9.778;2023-06-22T12:05:16;5;3;
36519;PMS5003;40269;46.742;9.778;2023-06-22T12:07:44;3;3;
36519;PMS5003;40269;46.742;9.778;2023-06-22T12:10:10;3;2;
36519;PMS5003;40269;46.742;9.778;2023-06-22T12:12:37;3;3;
36519;PMS5003;40269;46.742;9.778;2023-06-22T12:15:05;3;3;
36519;PMS5003;40269;46.742;9.778;2023-06-22T12:17:33;9;3;
36519;PMS5003;40269;46.742;9.778;2023-06-22T12:20:01;4;2;
36519;PMS5003;40269;46.742;9.778;2023-06-22T12:22:28;5;1;
36519;PMS5003;40269;46.742;9.778;2023-06-22T12:24:55;3;1;
36519;PMS5003;40269;46.742;9.778;2023-06-22T12:27:21;5;5;
36519;PMS5003;40269;46.742;9.778;2023-06-22T12:29:49;3;3;
36519;PMS5003;40269;46.742;9.778;2023-06-22T12:32:15;6;3;
36519;PMS5003;40269;46.742;9.778;2023-06-22T12:34:43;6;3;
36519;PMS5003;40269;46.742;9.778;2023-06-22T12:37:11;5;4;
36519;PMS5003;40269;46.742;9.778;2023-06-22T12:39:39;7;4;
36519;PMS5003;40269;46.742;9.778;2023-06-22T12:42:07;4;4;
36519;PMS5003;40269;46.742;9.778;2023-06-22T12:44:34;6;5;
36519;PMS5003;40269;46.742;9.778;2023-06-22T12:47:01;4;3;
36519;PMS5003;40269;46.742;9.778;2023-06-22T12:49:28;3;2;
36519;PMS5003;40269;46.742;9.778;2023-06-22T12:51:56;6;5;
36519;PMS5003;40269;46.742;9.778;2023-06-22T12:54:23;5;5;
36519;PMS5003;40269;46.742;9.778;2023-06-22T12:56:50;5;4;
36519;PMS5003;40269;46.742;9.778;2023-06-22T12:59:18;7;3;
36519;PMS5003;40269;46.742;9.778;2023-06-22T13:01:45;3;1;
36519;PMS5003;40269;46.742;9.778;2023-06-22T13:04:12;6;3;
36519;PMS5003;40269;46.742;9.778;2023-06-22T13:06:40;5;4;
36519;PMS5003;40269;46.742;9.778;2023-06-22T13:09:07;3;3;
36519;PMS5003;40269;46.742;9.778;2023-06-22T13:11:35;3;3;
36519;PMS5003;40269;46.742;9.778;2023-06-22T13:14:02;3;3;
36519;PMS5003;40269;46.742;9.778;2023-06-22T13:16:30;3;3;
36519;PMS5003;40269;46.742;9.778;2023-06-22T13:18:57;7;5;
36519;PMS5003;40269;46.742;9.778;2023-06-22T13:21:24;5;3;
36519;PMS5003;40269;46.742;9.778;2023-06-22T13:23:52;6;3;
36519;PMS5003;40269;46.742;9.778;2023-06-22T13:26:20;7;5;
36519;PMS5003;40269;46.742;9.778;2023-06-22T13:28:47;4;2;
36519;PMS5003;40269;46.742;9.778;2023-06-22T13:31:15;6;4;
36519;PMS5003;40269;46.742;9.778;2023-06-22T13:33:42;5;4;
36519;PMS5003;40269;46.742;9.778;2023-06-22T13:36:08;5;4;
36519;PMS5003;40269;46.742;9.778;2023-06-22T13:38:35;10;9;
36519;PMS5003;40269;46.742;9.778;2023-06-22T13:41:02;3;3;
36519;PMS5003;40269;46.742;9.778;2023-06-22T13:43:30;4;3;
36519;PMS5003;40269;46.742;9.778;2023-06-22T13:45:57;6;5;
36519;PMS5003;40269;46.742;9.778;2023-06-22T13:48:24;8;7;
36519;PMS5003;40269;46.742;9.778;2023-06-22T13:50:51;6;6;
36519;PMS5003;40269;46.742;9.778;2023-06-22T13:53:19;5;4;
36519;PMS5003;40269;46.742;9.778;2023-06-22T13:55:46;8;6;
36519;PMS5003;40269;46.742;9.778;2023-06-22T13:58:12;8;6;
36519;PMS5003;40269;46.742;9.778;2023-06-22T14:00:40;7;6;
36519;PMS5003;40269;46.742;9.778;2023-06-22T14:03:06;10;4;
36519;PMS5003;40269;46.742;9.778;2023-06-22T14:05:34;7;4;
36519;PMS5003;40269;46.742;9.778;2023-06-22T14:08:02;7;5;
36519;PMS5003;40269;46.742;9.778;2023-06-22T14:10:29;5;4;
36519;PMS5003;40269;46.742;9.778;2023-06-22T14:12:55;6;6;
36519;PMS5003;40269;46.742;9.778;2023-06-22T14:15:22;6;5;
36519;PMS5003;40269;46.742;9.778;2023-06-22T14:17:49;3;3;
36519;PMS5003;40269;46.742;9.778;2023-06-22T14:20:15;3;3;
36519;PMS5003;40269;46.742;9.778;2023-06-22T14:22:43;6;3;
36519;PMS5003;40269;46.742;9.778;2023-06-22T14:25:09;7;5;
36519;PMS5003;40269;46.742;9.778;2023-06-22T14:27:36;6;4;
36519;PMS5003;40269;46.742;9.778;2023-06-22T14:30:03;6;6;
36519;PMS5003;40269;46.742;9.778;2023-06-22T14:32:30;5;5;
36519;PMS5003;40269;46.742;9.778;2023-06-22T14:34:57;4;4;
36519;PMS5003;40269;46.742;9.778;2023-06-22T14:37:23;4;4;
36519;PMS5003;40269;46.742;9.778;2023-06-22T14:39:50;4;4;
36519;PMS5003;40269;46.742;9.778;2023-06-22T14:42:16;5;5;
36519;PMS5003;40269;46.742;9.778;2023-06-22T14:44:43;4;4;
36519;PMS5003;40269;46.742;9.778;2023-06-22T14:47:11;4;4;
36519;PMS5003;40269;46.742;9.778;2023-06-22T14:49:38;3;3;
36519;PMS5003;40269;46.742;9.778;2023-06-22T14:52:05;9;4;
36519;PMS5003;40269;46.742;9.778;2023-06-22T14:54:32;5;4;
36519;PMS5003;40269;46.742;9.778;2023-06-22T14:56:59;3;3;
36519;PMS5003;40269;46.742;9.778;2023-06-22T14:59:27;12;6;
36519;PMS5003;40269;46.742;9.778;2023-06-22T15:01:54;7;5;
36519;PMS5003;40269;46.742;9.778;2023-06-22T15:04:21;4;4;
36519;PMS5003;40269;46.742;9.778;2023-06-22T15:06:47;9;6;
36519;PMS5003;40269;46.742;9.778;2023-06-22T15:09:15;7;4;
36519;PMS5003;40269;46.742;9.778;2023-06-22T15:11:42;5;3;
36519;PMS5003;40269;46.742;9.778;2023-06-22T15:14:10;5;5;
36519;PMS5003;40269;46.742;9.778;2023-06-22T15:16:39;4;4;
36519;PMS5003;40269;46.742;9.778;2023-06-22T15:19:06;6;4;
36519;PMS5003;40269;46.742;9.778;2023-06-22T15:21:34;6;4;
36519;PMS5003;40269;46.742;9.778;2023-06-22T15:24:01;5;5;
36519;PMS5003;40269;46.742;9.778;2023-06-22T15:26:27;6;5;
36519;PMS5003;40269;46.742;9.778;2023-06-22T15:28:54;4;4;
36519;PMS5003;40269;46.742;9.778;2023-06-22T15:31:21;5;5;
36519;PMS5003;40269;46.742;9.778;2023-06-22T15:33:48;5;4;
36519;PMS5003;40269;46.742;9.778;2023-06-22T15:36:15;7;6;
36519;PMS5003;40269;46.742;9.778;2023-06-22T15:38:42;6;5;
36519;PMS5003;40269;46.742;9.778;2023-06-22T15:41:10;6;4;
36519;PMS5003;40269;46.742;9.778;2023-06-22T15:43:37;4;4;
36519;PMS5003;40269;46.742;9.778;2023-06-22T15:46:04;5;4;
36519;PMS5003;40269;46.742;9.778;2023-06-22T15:48:31;10;8;
36519;PMS5003;40269;46.742;9.778;2023-06-22T15:50:58;7;5;
36519;PMS5003;40269;46.742;9.778;2023-06-22T15:53:25;8;6;
36519;PMS5003;40269;46.742;9.778;2023-06-22T15:55:52;6;6;
36519;PMS5003;40269;46.742;9.778;2023-06-22T15:58:19;11;8;
36519;PMS5003;40269;46.742;9.778;2023-06-22T16:00:46;5;5;
36519;PMS5003;40269;46.742;9.778;2023-06-22T16:03:13;6;4;
36519;PMS5003;40269;46.742;9.778;2023-06-22T16:05:41;9;9;
36519;PMS5003;40269;46.742;9.778;2023-06-22T16:08:09;7;5;
36519;PMS5003;40269;46.742;9.778;2023-06-22T16:10:37;5;5;
36519;PMS5003;40269;46.742;9.778;2023-06-22T16:13:05;9;6;
36519;PMS5003;40269;46.742;9.778;2023-06-22T16:15:31;10;7;
36519;PMS5003;40269;46.742;9.778;2023-06-22T16:17:58;6;5;
36519;PMS5003;40269;46.742;9.778;2023-06-22T16:20:25;7;4;
36519;PMS5003;40269;46.742;9.778;2023-06-22T16:22:52;6;3;
36519;PMS5003;40269;46.742;9.778;2023-06-22T16:25:19;9;6;
36519;PMS5003;40269;46.742;9.778;2023-06-22T16:27:46;6;5;
36519;PMS5003;40269;46.742;9.778;2023-06-22T16:30:13;9;7;
36519;PMS5003;40269;46.742;9.778;2023-06-22T16:32:49;6;6;
36519;PMS5003;40269;46.742;9.778;2023-06-22T16:35:17;7;5;